This is the latest recevied weather packets stored in our database for station/object DJ0JJ-11. If no packets are shown the sender has not sent any weather packets the latest 10 day(s).
| Time | Temp. | Humidity | Pressure | Rain* | Wind** | Luminosity | Snow |
|---|---|---|---|---|---|---|---|
| 1788008732 | 23.89° C | 52% | 1017.2 hPa | - | - | - | - |
| 1788007832 | 24.44° C | 52% | 1017.3 hPa | - | - | - | - |
| 1788006931 | 24.44° C | 51% | 1017.4 hPa | - | - | - | - |
| 1788006031 | 24.44° C | 51% | 1017.4 hPa | - | - | - | - |
| 1788005131 | 24.44° C | 52% | 1017.5 hPa | - | - | - | - |
| 1788004231 | 25° C | 51% | 1017.5 hPa | - | - | - | - |
| 1788003331 | 24.44° C | 52% | 1017.4 hPa | - | - | - | - |
| 1788002431 | 25.56° C | 52% | 1017.5 hPa | - | - | - | - |
| 1788001531 | 24.44° C | 53% | 1017.8 hPa | - | - | - | - |
| 1788000631 | 24.44° C | 53% | 1017.9 hPa | - | - | - | - |
| 1787999731 | 23.89° C | 55% | 1018.1 hPa | - | - | - | - |
| 1787998831 | 23.89° C | 53% | 1018.1 hPa | - | - | - | - |
| 1787997930 | 23.33° C | 55% | 1018.2 hPa | - | - | - | - |
| 1787997030 | 22.78° C | 57% | 1018.3 hPa | - | - | - | - |
| 1787996130 | 22.78° C | 59% | 1018.5 hPa | - | - | - | - |
| 1787995230 | 22.22° C | 59% | 1018.7 hPa | - | - | - | - |
| 1787994330 | 23.33° C | 58% | 1018.6 hPa | - | - | - | - |
| 1787993430 | 22.22° C | 59% | 1018.6 hPa | - | - | - | - |
| 1787992529 | 21.67° C | 65% | 1018.7 hPa | - | - | - | - |
| 1787991629 | 21.67° C | 65% | 1018.7 hPa | - | - | - | - |
| 1787990729 | 21.67° C | 66% | 1018.7 hPa | - | - | - | - |
| 1787989832 | 20.56° C | 68% | 1018.8 hPa | - | - | - | - |
| 1787988032 | 20° C | 70% | 1018.9 hPa | - | - | - | - |
| 1787987132 | 20° C | 70% | 1018.9 hPa | - | - | - | - |
| 1787986232 | 19.44° C | 73% | 1019 hPa | - | - | - | - |
* Rain since midnight (hover to see other rain measurements)
** Current wind speed in m/s (hover to see current wind gust speed)